SAS2546 EGPH-ESSA
Flight info
| Callsign | SAS2546 |
|---|---|
| Flight time | 2h 3m |
| Altitude | 37000 |
| Route | GRICE4D GRICE P600 ASNUD DCT ADN DCT KLONN DCT VATEX DCT ELTOK ELTOK8M |
| Aircraft | A320/M-SDE3FGHIRWY/LB1 |
Departure
| Time | 2026-04-25 09:52 |
|---|---|
| Airport | Edinburgh Airport (EGPH) |
Arrival
| Time | 2026-04-25 11:55 |
|---|---|
| Airport | Stockholm-Arlanda Airport (ESSA) |
| Time | Latitude | Longitude | Altitude | Speed | Heading |
|---|---|---|---|---|---|
| 2026-04-25 09:26 | 55.94939 | -3.36356 | 113 ft | 0 kts | 148° |
| 2026-04-25 09:41 | 55.94945 | -3.36362 | 112 ft | 4 kts | 148° |
| 2026-04-25 09:42 | 55.94968 | -3.36386 | 113 ft | 4 kts | 148° |
| 2026-04-25 09:42 | 55.94991 | -3.36411 | 112 ft | 4 kts | 148° |
| 2026-04-25 09:42 | 55.94995 | -3.36416 | 112 ft | 0 kts | 148° |
| 2026-04-25 09:46 | 55.94992 | -3.36417 | 112 ft | 1 kts | 174° |
| 2026-04-25 09:46 | 55.94989 | -3.36440 | 112 ft | 4 kts | 253° |
| 2026-04-25 09:47 | 55.94964 | -3.36544 | 112 ft | 13 kts | 239° |
| 2026-04-25 09:47 | 55.94917 | -3.36682 | 113 ft | 11 kts | 239° |
| 2026-04-25 09:47 | 55.94896 | -3.36797 | 115 ft | 10 kts | 290° |
| 2026-04-25 09:47 | 55.94924 | -3.36904 | 113 ft | 11 kts | 245° |
| 2026-04-25 09:48 | 55.94878 | -3.37035 | 116 ft | 13 kts | 238° |
| 2026-04-25 09:48 | 55.94826 | -3.37186 | 116 ft | 15 kts | 238° |
| 2026-04-25 09:48 | 55.94768 | -3.37361 | 115 ft | 17 kts | 240° |
| 2026-04-25 09:48 | 55.94702 | -3.37555 | 113 ft | 19 kts | 238° |
| 2026-04-25 09:49 | 55.94628 | -3.37772 | 114 ft | 22 kts | 238° |
| 2026-04-25 09:49 | 55.94546 | -3.38014 | 116 ft | 24 kts | 239° |
| 2026-04-25 09:49 | 55.94456 | -3.38280 | 113 ft | 26 kts | 239° |
| 2026-04-25 09:49 | 55.94360 | -3.38563 | 114 ft | 23 kts | 240° |
| 2026-04-25 09:50 | 55.94315 | -3.38698 | 113 ft | 9 kts | 238° |
| 2026-04-25 09:50 | 55.94279 | -3.38811 | 115 ft | 11 kts | 253° |
| 2026-04-25 09:50 | 55.94329 | -3.38912 | 116 ft | 13 kts | 330° |
| 2026-04-25 09:50 | 55.94420 | -3.38951 | 113 ft | 16 kts | 38° |
| 2026-04-25 09:51 | 55.94489 | -3.38757 | 112 ft | 32 kts | 58° |
| 2026-04-25 09:51 | 55.94732 | -3.38041 | 115 ft | 97 kts | 59° |
| 2026-04-25 09:51 | 55.95171 | -3.36751 | 138 ft | 141 kts | 60° |
| 2026-04-25 09:51 | 55.95667 | -3.35239 | 653 ft | 143 kts | 60° |
| 2026-04-25 09:52 | 55.96222 | -3.33695 | 1132 ft | 152 kts | 50° |
| 2026-04-25 09:52 | 55.97043 | -3.32405 | 1520 ft | 166 kts | 42° |
| 2026-04-25 09:52 | 55.97970 | -3.30987 | 1862 ft | 185 kts | 44° |
| 2026-04-25 09:52 | 55.98990 | -3.29394 | 2148 ft | 207 kts | 43° |
| 2026-04-25 09:53 | 56.00226 | -3.27759 | 2419 ft | 235 kts | 27° |
| 2026-04-25 09:53 | 56.01868 | -3.26958 | 2890 ft | 256 kts | 4° |
| 2026-04-25 09:53 | 56.03667 | -3.27353 | 3613 ft | 264 kts | 340° |
| 2026-04-25 09:53 | 56.05281 | -3.28876 | 4565 ft | 262 kts | 321° |
| 2026-04-25 09:54 | 56.06477 | -3.31248 | 5482 ft | 263 kts | 301° |
| 2026-04-25 09:54 | 56.07169 | -3.34288 | 5868 ft | 265 kts | 285° |
| 2026-04-25 09:54 | 56.07643 | -3.37531 | 6563 ft | 264 kts | 284° |
| 2026-04-25 09:54 | 56.08093 | -3.40679 | 7411 ft | 266 kts | 284° |
| 2026-04-25 09:55 | 56.08552 | -3.43904 | 8180 ft | 269 kts | 285° |
| 2026-04-25 09:55 | 56.09025 | -3.47185 | 8955 ft | 273 kts | 285° |
| 2026-04-25 09:55 | 56.09507 | -3.50503 | 9730 ft | 277 kts | 285° |
| 2026-04-25 09:55 | 56.10027 | -3.53817 | 10518 ft | 277 kts | 293° |
| 2026-04-25 09:56 | 56.10937 | -3.56968 | 10843 ft | 296 kts | 300° |
| 2026-04-25 09:56 | 56.12027 | -3.60264 | 10998 ft | 318 kts | 305° |
| 2026-04-25 09:56 | 56.13527 | -3.63334 | 11196 ft | 336 kts | 318° |
| 2026-04-25 09:56 | 56.15443 | -3.65833 | 11663 ft | 345 kts | 330° |
| 2026-04-25 09:57 | 56.17657 | -3.67564 | 12274 ft | 350 kts | 342° |
| 2026-04-25 09:57 | 56.20074 | -3.68098 | 12909 ft | 356 kts | 5° |
| 2026-04-25 09:57 | 56.22447 | -3.66770 | 13559 ft | 363 kts | 25° |
| 2026-04-25 09:57 | 56.24575 | -3.64275 | 14193 ft | 369 kts | 36° |
| 2026-04-25 09:58 | 56.26536 | -3.61261 | 14775 ft | 373 kts | 40° |
| 2026-04-25 09:58 | 56.28459 | -3.58103 | 15320 ft | 376 kts | 40° |
| 2026-04-25 09:58 | 56.30436 | -3.54988 | 15857 ft | 379 kts | 38° |
| 2026-04-25 09:58 | 56.32498 | -3.51986 | 16395 ft | 382 kts | 36° |
| 2026-04-25 09:59 | 56.34630 | -3.49097 | 16943 ft | 385 kts | 34° |
| 2026-04-25 09:59 | 56.36820 | -3.46270 | 17489 ft | 389 kts | 33° |
| 2026-04-25 09:59 | 56.39045 | -3.43455 | 18064 ft | 392 kts | 33° |
| 2026-04-25 09:59 | 56.41295 | -3.40614 | 18635 ft | 396 kts | 33° |
| 2026-04-25 10:00 | 56.43561 | -3.37734 | 19152 ft | 399 kts | 33° |
| 2026-04-25 10:00 | 56.45840 | -3.34837 | 19668 ft | 402 kts | 33° |
| 2026-04-25 10:00 | 56.48055 | -3.31711 | 20187 ft | 408 kts | 44° |
| 2026-04-25 10:00 | 56.49782 | -3.27599 | 20692 ft | 413 kts | 55° |
| 2026-04-25 10:01 | 56.51335 | -3.23196 | 21205 ft | 416 kts | 56° |
| 2026-04-25 10:01 | 56.52883 | -3.18751 | 21671 ft | 419 kts | 56° |
| 2026-04-25 10:01 | 56.54436 | -3.14267 | 22138 ft | 421 kts | 56° |
| 2026-04-25 10:01 | 56.55999 | -3.09761 | 22594 ft | 423 kts | 56° |
| 2026-04-25 10:02 | 56.57574 | -3.05233 | 23041 ft | 426 kts | 56° |
| 2026-04-25 10:02 | 56.59143 | -3.00732 | 23476 ft | 428 kts | 56° |
| 2026-04-25 10:02 | 56.60739 | -2.96154 | 23891 ft | 430 kts | 56° |
| 2026-04-25 10:02 | 56.62340 | -2.91545 | 24229 ft | 433 kts | 56° |
| 2026-04-25 10:03 | 56.63945 | -2.86903 | 24573 ft | 435 kts | 56° |
| 2026-04-25 10:03 | 56.65555 | -2.82232 | 24894 ft | 437 kts | 56° |
| 2026-04-25 10:03 | 56.67174 | -2.77524 | 25211 ft | 440 kts | 56° |
| 2026-04-25 10:03 | 56.68797 | -2.72804 | 25533 ft | 441 kts | 56° |
| 2026-04-25 10:04 | 56.69878 | -2.69657 | 25749 ft | 443 kts | 56° |
| 2026-04-25 10:04 | 56.71513 | -2.64890 | 26064 ft | 445 kts | 56° |
| 2026-04-25 10:04 | 56.73150 | -2.60102 | 26392 ft | 447 kts | 56° |
| 2026-04-25 10:04 | 56.74797 | -2.55281 | 26718 ft | 449 kts | 56° |
| 2026-04-25 10:05 | 56.76450 | -2.50441 | 27042 ft | 451 kts | 56° |
| 2026-04-25 10:05 | 56.78109 | -2.45573 | 27359 ft | 453 kts | 56° |
| 2026-04-25 10:05 | 56.79771 | -2.40679 | 27721 ft | 453 kts | 56° |
| 2026-04-25 10:05 | 56.81427 | -2.35787 | 28175 ft | 452 kts | 56° |
| 2026-04-25 10:06 | 56.83072 | -2.30913 | 28680 ft | 450 kts | 56° |
| 2026-04-25 10:06 | 56.84705 | -2.26061 | 29209 ft | 447 kts | 57° |
| 2026-04-25 10:06 | 56.86331 | -2.21231 | 29695 ft | 445 kts | 57° |
| 2026-04-25 10:06 | 56.87951 | -2.16415 | 30169 ft | 444 kts | 57° |
| 2026-04-25 10:07 | 56.89567 | -2.11600 | 30590 ft | 443 kts | 57° |
| 2026-04-25 10:07 | 56.91174 | -2.06801 | 30974 ft | 442 kts | 57° |
| 2026-04-25 10:07 | 56.92778 | -2.02001 | 31350 ft | 442 kts | 56° |
| 2026-04-25 10:07 | 56.94382 | -1.97191 | 31726 ft | 441 kts | 56° |
| 2026-04-25 10:08 | 56.95981 | -1.92391 | 32102 ft | 441 kts | 56° |
| 2026-04-25 10:08 | 56.97576 | -1.87592 | 32483 ft | 441 kts | 56° |
| 2026-04-25 10:08 | 56.99169 | -1.82795 | 32863 ft | 440 kts | 56° |
| 2026-04-25 10:08 | 57.00759 | -1.77994 | 33244 ft | 440 kts | 56° |
| 2026-04-25 10:09 | 57.02342 | -1.73197 | 33646 ft | 439 kts | 56° |
| 2026-04-25 10:09 | 57.03919 | -1.68401 | 34067 ft | 438 kts | 56° |
| 2026-04-25 10:09 | 57.05488 | -1.63619 | 34421 ft | 437 kts | 56° |
| 2026-04-25 10:09 | 57.07057 | -1.58838 | 34732 ft | 436 kts | 56° |
| 2026-04-25 10:10 | 57.08621 | -1.54064 | 35055 ft | 435 kts | 56° |
| 2026-04-25 10:10 | 57.10177 | -1.49300 | 35371 ft | 434 kts | 56° |
| 2026-04-25 10:10 | 57.11725 | -1.44546 | 35744 ft | 431 kts | 56° |
| 2026-04-25 10:10 | 57.13260 | -1.39822 | 36110 ft | 429 kts | 56° |
| 2026-04-25 10:11 | 57.14786 | -1.35118 | 36426 ft | 427 kts | 56° |
| 2026-04-25 10:11 | 57.16304 | -1.30428 | 36710 ft | 426 kts | 56° |
| 2026-04-25 10:11 | 57.17824 | -1.25734 | 36977 ft | 425 kts | 56° |
| 2026-04-25 10:11 | 57.19320 | -1.21113 | 37193 ft | 425 kts | 56° |
| 2026-04-25 10:12 | 57.22369 | -1.11654 | 37246 ft | 433 kts | 56° |
| 2026-04-25 10:13 | 57.27001 | -0.97191 | 37247 ft | 437 kts | 56° |
| 2026-04-25 10:13 | 57.30081 | -0.87499 | 37245 ft | 437 kts | 56° |
| 2026-04-25 10:14 | 57.33160 | -0.77810 | 37248 ft | 437 kts | 56° |
| 2026-04-25 10:14 | 57.36235 | -0.68098 | 37247 ft | 437 kts | 56° |
| 2026-04-25 10:15 | 57.39303 | -0.58350 | 37261 ft | 437 kts | 56° |
| 2026-04-25 10:15 | 57.42358 | -0.48579 | 37263 ft | 437 kts | 56° |
| 2026-04-25 10:16 | 57.45407 | -0.38817 | 37263 ft | 437 kts | 56° |
| 2026-04-25 10:16 | 57.48426 | -0.29110 | 37261 ft | 437 kts | 56° |
| 2026-04-25 10:17 | 57.51462 | -0.19299 | 37259 ft | 437 kts | 56° |
| 2026-04-25 10:17 | 57.54481 | -0.09500 | 37258 ft | 437 kts | 56° |
| 2026-04-25 10:18 | 57.57503 | 0.00315 | 37276 ft | 437 kts | 56° |
| 2026-04-25 10:18 | 57.60518 | 0.10166 | 37257 ft | 438 kts | 56° |
| 2026-04-25 10:19 | 57.63524 | 0.20052 | 37251 ft | 439 kts | 56° |
| 2026-04-25 10:19 | 57.66533 | 0.29967 | 37267 ft | 439 kts | 56° |
| 2026-04-25 10:20 | 57.69530 | 0.39915 | 37255 ft | 439 kts | 56° |
| 2026-04-25 10:20 | 57.72523 | 0.49878 | 37243 ft | 439 kts | 56° |
| 2026-04-25 10:21 | 57.75515 | 0.59847 | 37244 ft | 439 kts | 56° |
| 2026-04-25 10:21 | 57.78490 | 0.69828 | 37234 ft | 438 kts | 55° |
| 2026-04-25 10:22 | 57.81459 | 0.79804 | 37230 ft | 438 kts | 55° |
| 2026-04-25 10:22 | 57.84415 | 0.89799 | 37232 ft | 438 kts | 55° |
| 2026-04-25 10:23 | 57.87336 | 0.99751 | 37225 ft | 438 kts | 56° |
| 2026-04-25 10:23 | 57.90273 | 1.09803 | 37228 ft | 438 kts | 56° |
| 2026-04-25 10:24 | 57.93206 | 1.19849 | 37245 ft | 438 kts | 55° |
| 2026-04-25 10:24 | 57.96106 | 1.29858 | 37209 ft | 431 kts | 54° |
| 2026-04-25 10:25 | 57.98978 | 1.39765 | 37191 ft | 431 kts | 54° |
| 2026-04-25 10:25 | 58.01844 | 1.49700 | 37196 ft | 432 kts | 54° |
| 2026-04-25 10:26 | 58.04700 | 1.59679 | 37189 ft | 432 kts | 54° |
| 2026-04-25 10:26 | 58.07558 | 1.69698 | 37192 ft | 433 kts | 54° |
| 2026-04-25 10:27 | 58.10406 | 1.79726 | 37191 ft | 433 kts | 54° |
| 2026-04-25 10:27 | 58.13259 | 1.89771 | 37177 ft | 434 kts | 54° |
| 2026-04-25 10:28 | 58.16097 | 1.99858 | 37167 ft | 434 kts | 54° |
| 2026-04-25 10:28 | 58.18923 | 2.09972 | 37204 ft | 435 kts | 54° |
| 2026-04-25 10:29 | 58.21751 | 2.20115 | 37195 ft | 434 kts | 54° |
| 2026-04-25 10:29 | 58.24560 | 2.30176 | 37182 ft | 434 kts | 54° |
| 2026-04-25 10:30 | 58.27378 | 2.40306 | 37178 ft | 434 kts | 54° |
| 2026-04-25 10:30 | 58.30180 | 2.50468 | 37173 ft | 435 kts | 54° |
| 2026-04-25 10:31 | 58.32963 | 2.60652 | 37143 ft | 434 kts | 54° |
| 2026-04-25 10:31 | 58.35748 | 2.70872 | 37133 ft | 435 kts | 54° |
| 2026-04-25 10:32 | 58.38515 | 2.81151 | 37137 ft | 439 kts | 58° |
| 2026-04-25 10:32 | 58.40379 | 2.92441 | 37142 ft | 450 kts | 67° |
| 2026-04-25 10:33 | 58.41994 | 3.03970 | 37149 ft | 450 kts | 67° |
| 2026-04-25 10:33 | 58.43600 | 3.15540 | 37157 ft | 452 kts | 67° |
| 2026-04-25 10:34 | 58.45192 | 3.27113 | 37153 ft | 455 kts | 66° |
| 2026-04-25 10:34 | 58.46787 | 3.38818 | 37147 ft | 456 kts | 66° |
| 2026-04-25 10:35 | 58.48385 | 3.50544 | 37141 ft | 456 kts | 66° |
| 2026-04-25 10:35 | 58.49974 | 3.62305 | 37143 ft | 457 kts | 67° |
| 2026-04-25 10:36 | 58.51551 | 3.74097 | 37146 ft | 457 kts | 67° |
| 2026-04-25 10:36 | 58.53125 | 3.85915 | 37095 ft | 459 kts | 67° |
| 2026-04-25 10:37 | 58.54692 | 3.97773 | 37092 ft | 460 kts | 67° |
| 2026-04-25 10:37 | 58.56247 | 4.09691 | 37086 ft | 462 kts | 67° |
| 2026-04-25 10:38 | 58.57802 | 4.21648 | 37096 ft | 463 kts | 67° |
| 2026-04-25 10:38 | 58.59334 | 4.33545 | 37094 ft | 463 kts | 67° |
| 2026-04-25 10:39 | 58.60870 | 4.45573 | 37104 ft | 466 kts | 68° |
| 2026-04-25 10:39 | 58.62405 | 4.57680 | 37079 ft | 468 kts | 68° |
| 2026-04-25 10:40 | 58.63937 | 4.69852 | 37071 ft | 469 kts | 68° |
| 2026-04-25 10:40 | 58.65456 | 4.82075 | 37067 ft | 470 kts | 68° |
| 2026-04-25 10:41 | 58.66959 | 4.94309 | 37068 ft | 471 kts | 68° |
| 2026-04-25 10:41 | 58.68463 | 5.06570 | 37071 ft | 473 kts | 69° |
| 2026-04-25 10:42 | 58.69961 | 5.18905 | 37041 ft | 475 kts | 69° |
| 2026-04-25 10:42 | 58.71448 | 5.31320 | 37021 ft | 476 kts | 69° |
| 2026-04-25 10:43 | 58.72933 | 5.43754 | 37028 ft | 477 kts | 69° |
| 2026-04-25 10:43 | 58.74408 | 5.56231 | 37017 ft | 478 kts | 69° |
| 2026-04-25 10:44 | 58.75866 | 5.68646 | 37037 ft | 479 kts | 69° |
| 2026-04-25 10:44 | 58.77319 | 5.81185 | 37038 ft | 479 kts | 69° |
| 2026-04-25 10:45 | 58.78756 | 5.93736 | 37033 ft | 479 kts | 69° |
| 2026-04-25 10:45 | 58.80192 | 6.06291 | 37028 ft | 479 kts | 70° |
| 2026-04-25 10:46 | 58.81609 | 6.18872 | 37022 ft | 480 kts | 70° |
| 2026-04-25 10:46 | 58.83018 | 6.31468 | 37040 ft | 480 kts | 70° |
| 2026-04-25 10:47 | 58.84413 | 6.44041 | 36951 ft | 477 kts | 69° |
| 2026-04-25 10:47 | 58.85555 | 6.54457 | 36945 ft | 477 kts | 70° |
| 2026-04-25 10:48 | 58.86917 | 6.67026 | 36979 ft | 479 kts | 70° |
| 2026-04-25 10:48 | 58.88272 | 6.79642 | 36962 ft | 480 kts | 70° |
| 2026-04-25 10:49 | 58.89622 | 6.92290 | 36949 ft | 481 kts | 70° |
| 2026-04-25 10:49 | 58.90296 | 6.98630 | 37055 ft | 481 kts | 70° |
| 2026-04-25 10:49 | 58.90968 | 7.04982 | 36931 ft | 483 kts | 70° |
| 2026-04-25 10:50 | 58.92304 | 7.17740 | 36903 ft | 484 kts | 70° |
| 2026-04-25 10:50 | 58.93622 | 7.30446 | 36908 ft | 486 kts | 70° |
| 2026-04-25 10:51 | 58.94943 | 7.43294 | 36900 ft | 487 kts | 71° |
| 2026-04-25 10:51 | 58.96250 | 7.56182 | 36906 ft | 488 kts | 71° |
| 2026-04-25 10:52 | 58.97545 | 7.69148 | 36907 ft | 491 kts | 71° |
| 2026-04-25 10:52 | 58.98829 | 7.82149 | 36871 ft | 492 kts | 71° |
| 2026-04-25 10:53 | 59.00111 | 7.95215 | 36869 ft | 494 kts | 71° |
| 2026-04-25 10:53 | 59.01378 | 8.08330 | 36867 ft | 495 kts | 71° |
| 2026-04-25 10:54 | 59.02643 | 8.21492 | 36856 ft | 496 kts | 71° |
| 2026-04-25 10:54 | 59.03894 | 8.34686 | 36896 ft | 497 kts | 71° |
| 2026-04-25 10:55 | 59.05126 | 8.47872 | 36852 ft | 495 kts | 72° |
| 2026-04-25 10:55 | 59.06346 | 8.60997 | 36860 ft | 494 kts | 72° |
| 2026-04-25 10:56 | 59.07545 | 8.74052 | 36852 ft | 494 kts | 72° |
| 2026-04-25 10:56 | 59.08734 | 8.87197 | 36854 ft | 494 kts | 72° |
| 2026-04-25 10:57 | 59.09916 | 9.00377 | 36874 ft | 494 kts | 73° |
| 2026-04-25 10:57 | 59.11081 | 9.13521 | 36834 ft | 493 kts | 73° |
| 2026-04-25 10:58 | 59.12235 | 9.26689 | 36833 ft | 493 kts | 73° |
| 2026-04-25 10:58 | 59.13372 | 9.39874 | 36832 ft | 494 kts | 73° |
| 2026-04-25 10:59 | 59.14492 | 9.53077 | 36833 ft | 494 kts | 73° |
| 2026-04-25 10:59 | 59.15601 | 9.66303 | 36838 ft | 494 kts | 74° |
| 2026-04-25 11:00 | 59.16698 | 9.79515 | 36824 ft | 493 kts | 74° |
| 2026-04-25 11:00 | 59.17781 | 9.92702 | 36815 ft | 492 kts | 74° |
| 2026-04-25 11:01 | 59.18850 | 10.05883 | 36807 ft | 492 kts | 74° |
| 2026-04-25 11:01 | 59.19898 | 10.18987 | 36804 ft | 492 kts | 75° |
| 2026-04-25 11:02 | 59.20934 | 10.32167 | 36938 ft | 490 kts | 75° |
| 2026-04-25 11:02 | 59.21953 | 10.45320 | 37035 ft | 490 kts | 76° |
| 2026-04-25 11:03 | 59.22962 | 10.58495 | 37135 ft | 491 kts | 76° |
| 2026-04-25 11:03 | 59.23958 | 10.71691 | 37183 ft | 491 kts | 76° |
| 2026-04-25 11:04 | 59.24947 | 10.84901 | 37185 ft | 491 kts | 76° |
| 2026-04-25 11:04 | 59.25920 | 10.98130 | 37186 ft | 492 kts | 76° |
| 2026-04-25 11:05 | 59.26880 | 11.11354 | 37108 ft | 492 kts | 77° |
| 2026-04-25 11:05 | 59.27830 | 11.24598 | 37002 ft | 491 kts | 77° |
| 2026-04-25 11:05 | 59.28298 | 11.31209 | 36795 ft | 491 kts | 77° |
| 2026-04-25 11:06 | 59.28760 | 11.37824 | 36791 ft | 491 kts | 77° |
| 2026-04-25 11:06 | 59.29678 | 11.51080 | 36786 ft | 491 kts | 77° |
| 2026-04-25 11:07 | 59.30581 | 11.64327 | 36786 ft | 492 kts | 77° |
| 2026-04-25 11:07 | 59.31465 | 11.77599 | 36793 ft | 492 kts | 78° |
| 2026-04-25 11:08 | 59.32782 | 11.90652 | 36786 ft | 487 kts | 71° |
| 2026-04-25 11:08 | 59.34320 | 12.03573 | 36763 ft | 486 kts | 72° |
| 2026-04-25 11:09 | 59.35834 | 12.16471 | 36764 ft | 485 kts | 72° |
| 2026-04-25 11:09 | 59.37327 | 12.29373 | 36754 ft | 485 kts | 72° |
| 2026-04-25 11:10 | 59.38816 | 12.42307 | 36758 ft | 486 kts | 72° |
| 2026-04-25 11:10 | 59.40286 | 12.55245 | 36747 ft | 486 kts | 72° |
| 2026-04-25 11:11 | 59.41744 | 12.68214 | 36748 ft | 486 kts | 72° |
| 2026-04-25 11:11 | 59.43196 | 12.81170 | 36745 ft | 486 kts | 72° |
| 2026-04-25 11:12 | 59.44626 | 12.94073 | 36745 ft | 486 kts | 73° |
| 2026-04-25 11:12 | 59.46048 | 13.07072 | 36744 ft | 486 kts | 73° |
| 2026-04-25 11:13 | 59.47457 | 13.20088 | 36724 ft | 486 kts | 73° |
| 2026-04-25 11:13 | 59.48852 | 13.33104 | 36721 ft | 486 kts | 73° |
| 2026-04-25 11:14 | 59.50235 | 13.46125 | 36706 ft | 485 kts | 74° |
| 2026-04-25 11:14 | 59.51599 | 13.59136 | 36707 ft | 485 kts | 74° |
| 2026-04-25 11:15 | 59.52957 | 13.72144 | 36709 ft | 485 kts | 74° |
| 2026-04-25 11:15 | 59.54304 | 13.85192 | 36718 ft | 485 kts | 75° |
| 2026-04-25 11:16 | 59.55141 | 14.05177 | 36697 ft | 491 kts | 86° |
| 2026-04-25 11:16 | 59.55252 | 14.18550 | 36688 ft | 491 kts | 86° |
| 2026-04-25 11:17 | 59.55347 | 14.32013 | 36691 ft | 492 kts | 86° |
| 2026-04-25 11:17 | 59.55426 | 14.45510 | 36697 ft | 492 kts | 86° |
| 2026-04-25 11:18 | 59.55491 | 14.59006 | 36686 ft | 493 kts | 87° |
| 2026-04-25 11:18 | 59.55553 | 14.72535 | 36397 ft | 493 kts | 87° |
| 2026-04-25 11:19 | 59.55581 | 14.79290 | 36153 ft | 493 kts | 87° |
| 2026-04-25 11:19 | 59.55604 | 14.86043 | 35913 ft | 493 kts | 87° |
| 2026-04-25 11:19 | 59.55623 | 14.92799 | 35675 ft | 493 kts | 87° |
| 2026-04-25 11:19 | 59.55634 | 14.99554 | 35330 ft | 493 kts | 87° |
| 2026-04-25 11:20 | 59.55640 | 15.06374 | 34439 ft | 500 kts | 86° |
| 2026-04-25 11:20 | 59.55647 | 15.13272 | 33583 ft | 504 kts | 87° |
| 2026-04-25 11:20 | 59.55652 | 15.20139 | 32489 ft | 510 kts | 87° |
| 2026-04-25 11:20 | 59.55654 | 15.27147 | 31490 ft | 512 kts | 87° |
| 2026-04-25 11:21 | 59.55652 | 15.34197 | 30479 ft | 515 kts | 87° |
| 2026-04-25 11:21 | 59.55645 | 15.41299 | 29271 ft | 521 kts | 87° |
| 2026-04-25 11:21 | 59.55632 | 15.48449 | 28125 ft | 518 kts | 88° |
| 2026-04-25 11:21 | 59.55612 | 15.55568 | 26962 ft | 518 kts | 88° |
| 2026-04-25 11:22 | 59.55585 | 15.62590 | 26340 ft | 508 kts | 88° |
| 2026-04-25 11:22 | 59.55566 | 15.67187 | 25793 ft | 505 kts | 88° |
| 2026-04-25 11:22 | 59.55523 | 15.76390 | 24770 ft | 498 kts | 88° |
| 2026-04-25 11:22 | 59.55492 | 15.83190 | 24008 ft | 494 kts | 88° |
| 2026-04-25 11:23 | 59.55461 | 15.89926 | 23258 ft | 490 kts | 88° |
| 2026-04-25 11:23 | 59.55430 | 15.96629 | 22413 ft | 485 kts | 88° |
| 2026-04-25 11:23 | 59.55396 | 16.03225 | 21696 ft | 478 kts | 88° |
| 2026-04-25 11:23 | 59.55356 | 16.09731 | 20967 ft | 471 kts | 89° |
| 2026-04-25 11:24 | 59.55309 | 16.16071 | 20276 ft | 465 kts | 89° |
| 2026-04-25 11:24 | 59.55260 | 16.22401 | 19611 ft | 458 kts | 89° |
| 2026-04-25 11:24 | 59.55209 | 16.28634 | 18982 ft | 451 kts | 89° |
| 2026-04-25 11:24 | 59.55155 | 16.34790 | 18357 ft | 445 kts | 89° |
| 2026-04-25 11:25 | 59.55101 | 16.40856 | 17751 ft | 440 kts | 88° |
| 2026-04-25 11:25 | 59.55046 | 16.46853 | 17132 ft | 434 kts | 88° |
| 2026-04-25 11:25 | 59.54989 | 16.52765 | 16551 ft | 429 kts | 89° |
| 2026-04-25 11:25 | 59.54931 | 16.58629 | 15938 ft | 426 kts | 89° |
| 2026-04-25 11:26 | 59.54869 | 16.64452 | 15329 ft | 423 kts | 89° |
| 2026-04-25 11:26 | 59.54804 | 16.70235 | 14700 ft | 421 kts | 89° |
| 2026-04-25 11:26 | 59.54737 | 16.75964 | 14065 ft | 418 kts | 89° |
| 2026-04-25 11:26 | 59.54668 | 16.81685 | 13402 ft | 416 kts | 89° |
| 2026-04-25 11:27 | 59.54598 | 16.87354 | 12845 ft | 410 kts | 89° |
| 2026-04-25 11:27 | 59.54526 | 16.92952 | 12106 ft | 406 kts | 89° |
| 2026-04-25 11:27 | 59.54450 | 16.98474 | 11399 ft | 403 kts | 89° |
| 2026-04-25 11:27 | 59.54401 | 17.02102 | 11050 ft | 397 kts | 89° |
| 2026-04-25 11:28 | 59.54296 | 17.09339 | 10347 ft | 387 kts | 89° |
| 2026-04-25 11:28 | 59.54134 | 17.14466 | 10088 ft | 375 kts | 97° |
| 2026-04-25 11:28 | 59.53408 | 17.19344 | 9878 ft | 364 kts | 107° |
| 2026-04-25 11:28 | 59.52602 | 17.23963 | 9729 ft | 350 kts | 107° |
| 2026-04-25 11:29 | 59.51819 | 17.28406 | 9613 ft | 337 kts | 107° |
| 2026-04-25 11:29 | 59.51055 | 17.32696 | 9471 ft | 327 kts | 108° |
| 2026-04-25 11:29 | 59.50307 | 17.36868 | 9253 ft | 319 kts | 108° |
| 2026-04-25 11:29 | 59.49570 | 17.40948 | 8984 ft | 313 kts | 107° |
| 2026-04-25 11:30 | 59.48839 | 17.44959 | 8717 ft | 309 kts | 107° |
| 2026-04-25 11:30 | 59.48085 | 17.48896 | 8445 ft | 306 kts | 113° |
| 2026-04-25 11:30 | 59.47111 | 17.52602 | 8114 ft | 306 kts | 117° |
| 2026-04-25 11:30 | 59.46069 | 17.56274 | 7634 ft | 309 kts | 117° |
| 2026-04-25 11:31 | 59.45004 | 17.59969 | 7161 ft | 312 kts | 117° |
| 2026-04-25 11:31 | 59.43920 | 17.63680 | 6671 ft | 314 kts | 117° |
| 2026-04-25 11:31 | 59.42911 | 17.67482 | 6212 ft | 313 kts | 108° |
| 2026-04-25 11:31 | 59.42110 | 17.71463 | 5738 ft | 316 kts | 114° |
| 2026-04-25 11:32 | 59.41034 | 17.75247 | 5268 ft | 317 kts | 117° |
| 2026-04-25 11:32 | 59.40027 | 17.79100 | 4715 ft | 316 kts | 102° |
| 2026-04-25 11:32 | 59.39983 | 17.83160 | 4698 ft | 286 kts | 69° |
| 2026-04-25 11:32 | 59.40939 | 17.86316 | 4555 ft | 260 kts | 36° |
| 2026-04-25 11:33 | 59.42483 | 17.87856 | 4294 ft | 245 kts | 10° |
| 2026-04-25 11:33 | 59.43579 | 17.88302 | 4082 ft | 242 kts | 6° |
| 2026-04-25 11:33 | 59.45237 | 17.88831 | 3746 ft | 241 kts | 5° |
| 2026-04-25 11:33 | 59.47420 | 17.89585 | 3307 ft | 240 kts | 6° |
| 2026-04-25 11:34 | 59.48526 | 17.89983 | 3081 ft | 239 kts | 6° |
| 2026-04-25 11:34 | 59.50157 | 17.90571 | 2752 ft | 233 kts | 6° |
| 2026-04-25 11:34 | 59.51697 | 17.91130 | 2438 ft | 214 kts | 6° |
| 2026-04-25 11:34 | 59.53056 | 17.91622 | 2169 ft | 189 kts | 7° |
| 2026-04-25 11:35 | 59.54268 | 17.92059 | 1940 ft | 165 kts | 6° |
| 2026-04-25 11:35 | 59.55335 | 17.92443 | 1696 ft | 146 kts | 6° |
| 2026-04-25 11:35 | 59.56271 | 17.92780 | 1518 ft | 130 kts | 5° |
| 2026-04-25 11:35 | 59.57149 | 17.93094 | 1337 ft | 126 kts | 4° |
| 2026-04-25 11:36 | 59.58006 | 17.93402 | 1156 ft | 124 kts | 3° |
| 2026-04-25 11:36 | 59.58858 | 17.93707 | 967 ft | 125 kts | 6° |
| 2026-04-25 11:36 | 59.59713 | 17.94016 | 785 ft | 127 kts | 7° |
| 2026-04-25 11:36 | 59.60584 | 17.94330 | 607 ft | 126 kts | 9° |
| 2026-04-25 11:37 | 59.61428 | 17.94634 | 444 ft | 122 kts | 9° |
| 2026-04-25 11:37 | 59.62278 | 17.94936 | 252 ft | 125 kts | 10° |
| 2026-04-25 11:37 | 59.63113 | 17.95251 | 150 ft | 112 kts | 8° |
| 2026-04-25 11:37 | 59.63821 | 17.95517 | 221 ft | 113 kts | 10° |
| 2026-04-25 11:38 | 59.64694 | 17.95812 | 663 ft | 137 kts | 8° |
| 2026-04-25 11:38 | 59.65755 | 17.96141 | 1133 ft | 162 kts | 7° |
| 2026-04-25 11:38 | 59.66910 | 17.96567 | 1539 ft | 178 kts | 7° |
| 2026-04-25 11:38 | 59.68150 | 17.97092 | 2019 ft | 185 kts | 9° |
| 2026-04-25 11:39 | 59.69329 | 17.98197 | 2621 ft | 196 kts | 36° |
| 2026-04-25 11:39 | 59.70027 | 18.00639 | 3295 ft | 217 kts | 72° |
| 2026-04-25 11:39 | 59.69986 | 18.03741 | 3861 ft | 233 kts | 94° |
| 2026-04-25 11:39 | 59.69652 | 18.06906 | 3981 ft | 235 kts | 97° |
| 2026-04-25 11:40 | 59.69265 | 18.10048 | 3995 ft | 235 kts | 97° |
| 2026-04-25 11:40 | 59.68868 | 18.13185 | 3999 ft | 235 kts | 97° |
| 2026-04-25 11:40 | 59.68472 | 18.16327 | 3999 ft | 234 kts | 98° |
| 2026-04-25 11:40 | 59.67831 | 18.19252 | 3996 ft | 242 kts | 126° |
| 2026-04-25 11:41 | 59.66481 | 18.21244 | 4003 ft | 245 kts | 161° |
| 2026-04-25 11:41 | 59.64807 | 18.21715 | 4011 ft | 244 kts | 184° |
| 2026-04-25 11:41 | 59.63118 | 18.21561 | 3998 ft | 242 kts | 188° |
| 2026-04-25 11:41 | 59.61431 | 18.21330 | 4002 ft | 244 kts | 188° |
| 2026-04-25 11:42 | 59.59756 | 18.20867 | 3997 ft | 241 kts | 196° |
| 2026-04-25 11:42 | 59.58121 | 18.20149 | 3998 ft | 240 kts | 197° |
| 2026-04-25 11:42 | 59.56504 | 18.19387 | 3994 ft | 238 kts | 198° |
| 2026-04-25 11:42 | 59.54892 | 18.18614 | 3997 ft | 239 kts | 198° |
| 2026-04-25 11:43 | 59.53289 | 18.17757 | 3997 ft | 238 kts | 205° |
| 2026-04-25 11:43 | 59.51738 | 18.16604 | 3997 ft | 238 kts | 207° |
| 2026-04-25 11:43 | 59.50203 | 18.15394 | 3994 ft | 236 kts | 207° |
| 2026-04-25 11:43 | 59.48681 | 18.14168 | 3978 ft | 238 kts | 208° |
| 2026-04-25 11:44 | 59.47151 | 18.12944 | 3993 ft | 236 kts | 208° |
| 2026-04-25 11:44 | 59.45635 | 18.11729 | 3995 ft | 235 kts | 208° |
| 2026-04-25 11:44 | 59.44118 | 18.10521 | 3999 ft | 234 kts | 208° |
| 2026-04-25 11:44 | 59.42610 | 18.09314 | 3999 ft | 234 kts | 208° |
| 2026-04-25 11:45 | 59.41095 | 18.08097 | 4001 ft | 235 kts | 207° |
| 2026-04-25 11:45 | 59.39579 | 18.06874 | 4001 ft | 236 kts | 208° |
| 2026-04-25 11:45 | 59.38084 | 18.05676 | 4002 ft | 235 kts | 208° |
| 2026-04-25 11:45 | 59.36731 | 18.04065 | 3993 ft | 222 kts | 236° |
| 2026-04-25 11:46 | 59.36078 | 18.01494 | 4001 ft | 206 kts | 268° |
| 2026-04-25 11:46 | 59.35999 | 17.98718 | 4007 ft | 204 kts | 277° |
| 2026-04-25 11:46 | 59.36023 | 17.95944 | 4002 ft | 202 kts | 277° |
| 2026-04-25 11:46 | 59.36054 | 17.93293 | 3993 ft | 188 kts | 278° |
| 2026-04-25 11:47 | 59.36271 | 17.90862 | 3994 ft | 176 kts | 300° |
| 2026-04-25 11:47 | 59.36875 | 17.88788 | 4001 ft | 174 kts | 307° |
| 2026-04-25 11:47 | 59.37592 | 17.86889 | 3994 ft | 172 kts | 324° |
| 2026-04-25 11:47 | 59.38712 | 17.86381 | 4009 ft | 174 kts | 8° |
| 2026-04-25 11:48 | 59.39822 | 17.86953 | 4032 ft | 155 kts | 4° |
| 2026-04-25 11:48 | 59.40836 | 17.87278 | 3996 ft | 140 kts | 4° |
| 2026-04-25 11:48 | 59.41777 | 17.87590 | 4007 ft | 143 kts | 4° |
| 2026-04-25 11:48 | 59.42775 | 17.87933 | 4004 ft | 147 kts | 5° |
| 2026-04-25 11:49 | 59.43786 | 17.88289 | 3951 ft | 148 kts | 4° |
| 2026-04-25 11:49 | 59.44798 | 17.88650 | 3801 ft | 147 kts | 5° |
| 2026-04-25 11:49 | 59.45801 | 17.89009 | 3619 ft | 146 kts | 5° |
| 2026-04-25 11:49 | 59.46806 | 17.89368 | 3424 ft | 147 kts | 4° |
| 2026-04-25 11:50 | 59.47805 | 17.89727 | 3225 ft | 146 kts | 4° |
| 2026-04-25 11:50 | 59.48799 | 17.90084 | 3028 ft | 144 kts | 4° |
| 2026-04-25 11:50 | 59.49784 | 17.90438 | 2829 ft | 143 kts | 4° |
| 2026-04-25 11:50 | 59.50760 | 17.90788 | 2632 ft | 142 kts | 4° |
| 2026-04-25 11:51 | 59.51709 | 17.91132 | 2432 ft | 132 kts | 5° |
| 2026-04-25 11:51 | 59.52580 | 17.91447 | 2279 ft | 121 kts | 5° |
| 2026-04-25 11:51 | 59.53382 | 17.91735 | 2100 ft | 115 kts | 4° |
| 2026-04-25 11:51 | 59.54162 | 17.92015 | 1940 ft | 112 kts | 5° |
| 2026-04-25 11:52 | 59.54911 | 17.92284 | 1777 ft | 111 kts | 5° |
| 2026-04-25 11:52 | 59.55673 | 17.92558 | 1626 ft | 112 kts | 4° |
| 2026-04-25 11:52 | 59.56443 | 17.92835 | 1470 ft | 112 kts | 5° |
| 2026-04-25 11:52 | 59.57196 | 17.93106 | 1314 ft | 111 kts | 4° |
| 2026-04-25 11:53 | 59.57962 | 17.93382 | 1154 ft | 111 kts | 5° |
| 2026-04-25 11:53 | 59.58730 | 17.93660 | 989 ft | 112 kts | 5° |
| 2026-04-25 11:53 | 59.59491 | 17.93935 | 822 ft | 111 kts | 6° |
| 2026-04-25 11:53 | 59.60259 | 17.94212 | 660 ft | 115 kts | 9° |
| 2026-04-25 11:54 | 59.61053 | 17.94499 | 506 ft | 116 kts | 10° |
| 2026-04-25 11:54 | 59.61853 | 17.94785 | 329 ft | 119 kts | 10° |
| 2026-04-25 11:54 | 59.63400 | 17.95351 | 142 ft | 87 kts | 11° |
| 2026-04-25 11:55 | 59.63731 | 17.95471 | 145 ft | 32 kts | 11° |
| 2026-04-25 11:55 | 59.63957 | 17.95547 | 144 ft | 33 kts | 6° |
| 2026-04-25 11:55 | 59.64172 | 17.95498 | 140 ft | 31 kts | 341° |
| 2026-04-25 11:55 | 59.64366 | 17.95362 | 138 ft | 25 kts | 339° |
| 2026-04-25 11:56 | 59.64486 | 17.95341 | 138 ft | 15 kts | 5° |
| 2026-04-25 11:56 | 59.64544 | 17.95211 | 138 ft | 16 kts | 248° |
| 2026-04-25 11:56 | 59.64480 | 17.95012 | 138 ft | 18 kts | 238° |
| 2026-04-25 11:56 | 59.64409 | 17.94786 | 138 ft | 21 kts | 238° |
| 2026-04-25 11:57 | 59.64330 | 17.94527 | 138 ft | 23 kts | 239° |
| 2026-04-25 11:57 | 59.64238 | 17.94239 | 138 ft | 26 kts | 233° |
| 2026-04-25 11:57 | 59.64136 | 17.93922 | 138 ft | 29 kts | 241° |
| 2026-04-25 11:57 | 59.64039 | 17.93628 | 138 ft | 17 kts | 240° |
| 2026-04-25 11:58 | 59.63987 | 17.93397 | 138 ft | 20 kts | 262° |
| 2026-04-25 11:58 | 59.64032 | 17.93133 | 138 ft | 22 kts | 298° |
| 2026-04-25 11:58 | 59.64108 | 17.92861 | 138 ft | 24 kts | 295° |
| 2026-04-25 11:58 | 59.64183 | 17.92557 | 138 ft | 25 kts | 297° |
| 2026-04-25 11:59 | 59.64265 | 17.92241 | 138 ft | 20 kts | 295° |
| 2026-04-25 11:59 | 59.64325 | 17.92077 | 138 ft | 16 kts | 338° |
| 2026-04-25 11:59 | 59.64436 | 17.92109 | 138 ft | 17 kts | 12° |